sensor_id;sensor_type;location;lat;lon;timestamp;P1;durP1;ratioP1;P2;durP2;ratioP2
17686;SDS011;8962;52.538;13.266;2023-09-19T00:00:25;6.00;;;2.40;;
17686;SDS011;8962;52.538;13.266;2023-09-19T00:06:40;5.00;;;2.42;;
17686;SDS011;8962;52.538;13.266;2023-09-19T00:09:09;3.95;;;2.70;;
17686;SDS011;8962;52.538;13.266;2023-09-19T00:11:36;5.18;;;2.40;;
17686;SDS011;8962;52.538;13.266;2023-09-19T00:14:08;5.53;;;3.35;;
17686;SDS011;8962;52.538;13.266;2023-09-19T00:16:35;5.65;;;2.58;;
17686;SDS011;8962;52.538;13.266;2023-09-19T00:19:02;6.40;;;2.75;;
17686;SDS011;8962;52.538;13.266;2023-09-19T00:21:31;5.50;;;2.90;;
17686;SDS011;8962;52.538;13.266;2023-09-19T00:23:58;6.80;;;2.72;;
17686;SDS011;8962;52.538;13.266;2023-09-19T00:26:26;5.57;;;2.60;;
17686;SDS011;8962;52.538;13.266;2023-09-19T00:28:55;6.78;;;2.70;;
17686;SDS011;8962;52.538;13.266;2023-09-19T00:31:31;5.05;;;2.47;;
17686;SDS011;8962;52.538;13.266;2023-09-19T00:33:58;5.10;;;2.50;;
17686;SDS011;8962;52.538;13.266;2023-09-19T00:36:29;3.92;;;2.35;;
17686;SDS011;8962;52.538;13.266;2023-09-19T00:38:56;5.32;;;2.60;;
17686;SDS011;8962;52.538;13.266;2023-09-19T00:41:23;3.53;;;2.70;;
17686;SDS011;8962;52.538;13.266;2023-09-19T00:43:51;6.57;;;2.80;;
17686;SDS011;8962;52.538;13.266;2023-09-19T00:46:18;4.85;;;2.50;;
17686;SDS011;8962;52.538;13.266;2023-09-19T00:48:47;4.25;;;2.60;;
17686;SDS011;8962;52.538;13.266;2023-09-19T00:51:16;4.80;;;2.30;;
17686;SDS011;8962;52.538;13.266;2023-09-19T00:53:46;5.40;;;2.33;;
17686;SDS011;8962;52.538;13.266;2023-09-19T00:56:14;6.45;;;2.55;;
17686;SDS011;8962;52.538;13.266;2023-09-19T00:58:43;4.45;;;2.20;;
17686;SDS011;8962;52.538;13.266;2023-09-19T01:01:11;4.60;;;2.65;;
17686;SDS011;8962;52.538;13.266;2023-09-19T01:03:40;6.03;;;2.60;;
17686;SDS011;8962;52.538;13.266;2023-09-19T01:06:09;5.53;;;2.63;;
17686;SDS011;8962;52.538;13.266;2023-09-19T01:08:38;4.22;;;2.40;;
17686;SDS011;8962;52.538;13.266;2023-09-19T01:11:08;4.80;;;2.10;;
17686;SDS011;8962;52.538;13.266;2023-09-19T01:13:44;5.38;;;2.45;;
17686;SDS011;8962;52.538;13.266;2023-09-19T01:16:28;4.13;;;2.25;;
17686;SDS011;8962;52.538;13.266;2023-09-19T01:19:07;4.50;;;2.45;;
17686;SDS011;8962;52.538;13.266;2023-09-19T01:21:50;4.53;;;2.55;;
17686;SDS011;8962;52.538;13.266;2023-09-19T01:24:41;3.53;;;2.20;;
17686;SDS011;8962;52.538;13.266;2023-09-19T01:27:47;5.45;;;2.50;;
17686;SDS011;8962;52.538;13.266;2023-09-19T01:30:39;5.85;;;2.50;;
17686;SDS011;8962;52.538;13.266;2023-09-19T01:33:09;3.88;;;2.10;;
17686;SDS011;8962;52.538;13.266;2023-09-19T01:35:37;9.30;;;2.30;;
17686;SDS011;8962;52.538;13.266;2023-09-19T01:38:05;4.25;;;2.45;;
17686;SDS011;8962;52.538;13.266;2023-09-19T01:40:36;3.90;;;2.20;;
17686;SDS011;8962;52.538;13.266;2023-09-19T01:43:09;6.85;;;2.78;;
17686;SDS011;8962;52.538;13.266;2023-09-19T01:45:46;4.35;;;2.65;;
17686;SDS011;8962;52.538;13.266;2023-09-19T01:48:20;4.57;;;2.13;;
17686;SDS011;8962;52.538;13.266;2023-09-19T01:50:55;4.85;;;2.35;;
17686;SDS011;8962;52.538;13.266;2023-09-19T01:53:30;4.32;;;2.33;;
17686;SDS011;8962;52.538;13.266;2023-09-19T01:56:05;4.45;;;2.35;;
17686;SDS011;8962;52.538;13.266;2023-09-19T01:58:39;3.60;;;2.15;;
17686;SDS011;8962;52.538;13.266;2023-09-19T02:01:15;5.60;;;2.80;;
17686;SDS011;8962;52.538;13.266;2023-09-19T02:03:45;5.43;;;2.50;;
17686;SDS011;8962;52.538;13.266;2023-09-19T02:06:14;3.65;;;2.30;;
17686;SDS011;8962;52.538;13.266;2023-09-19T02:08:43;3.95;;;2.40;;
17686;SDS011;8962;52.538;13.266;2023-09-19T02:11:11;4.07;;;2.30;;
17686;SDS011;8962;52.538;13.266;2023-09-19T02:13:39;6.85;;;3.00;;
17686;SDS011;8962;52.538;13.266;2023-09-19T02:16:07;5.85;;;2.67;;
17686;SDS011;8962;52.538;13.266;2023-09-19T02:18:36;7.15;;;2.75;;
17686;SDS011;8962;52.538;13.266;2023-09-19T02:21:04;8.80;;;3.40;;
17686;SDS011;8962;52.538;13.266;2023-09-19T02:23:31;5.88;;;2.40;;
17686;SDS011;8962;52.538;13.266;2023-09-19T02:25:59;5.47;;;2.88;;
17686;SDS011;8962;52.538;13.266;2023-09-19T02:28:30;5.82;;;3.22;;
17686;SDS011;8962;52.538;13.266;2023-09-19T02:30:57;4.90;;;2.90;;
17686;SDS011;8962;52.538;13.266;2023-09-19T02:33:25;6.10;;;2.88;;
17686;SDS011;8962;52.538;13.266;2023-09-19T02:35:56;4.97;;;2.58;;
17686;SDS011;8962;52.538;13.266;2023-09-19T02:38:24;4.88;;;2.70;;
17686;SDS011;8962;52.538;13.266;2023-09-19T02:40:51;3.63;;;2.67;;
17686;SDS011;8962;52.538;13.266;2023-09-19T02:43:20;8.05;;;2.60;;
17686;SDS011;8962;52.538;13.266;2023-09-19T02:45:47;5.40;;;2.80;;
17686;SDS011;8962;52.538;13.266;2023-09-19T02:48:19;3.95;;;2.45;;
17686;SDS011;8962;52.538;13.266;2023-09-19T02:50:46;4.20;;;2.17;;
17686;SDS011;8962;52.538;13.266;2023-09-19T02:53:18;4.32;;;2.53;;
17686;SDS011;8962;52.538;13.266;2023-09-19T02:55:46;4.03;;;2.47;;
17686;SDS011;8962;52.538;13.266;2023-09-19T02:58:14;3.83;;;2.55;;
17686;SDS011;8962;52.538;13.266;2023-09-19T03:00:41;6.32;;;2.85;;
17686;SDS011;8962;52.538;13.266;2023-09-19T03:03:13;5.38;;;2.30;;
17686;SDS011;8962;52.538;13.266;2023-09-19T03:05:41;3.03;;;2.35;;
17686;SDS011;8962;52.538;13.266;2023-09-19T03:08:12;6.28;;;2.40;;
17686;SDS011;8962;52.538;13.266;2023-09-19T03:10:45;3.03;;;1.90;;
17686;SDS011;8962;52.538;13.266;2023-09-19T03:13:12;2.90;;;1.88;;
17686;SDS011;8962;52.538;13.266;2023-09-19T03:15:41;5.72;;;2.20;;
17686;SDS011;8962;52.538;13.266;2023-09-19T03:18:09;5.10;;;1.88;;
17686;SDS011;8962;52.538;13.266;2023-09-19T03:20:37;2.50;;;1.73;;
17686;SDS011;8962;52.538;13.266;2023-09-19T03:23:05;3.80;;;1.98;;
17686;SDS011;8962;52.538;13.266;2023-09-19T03:25:34;3.80;;;1.92;;
17686;SDS011;8962;52.538;13.266;2023-09-19T03:28:04;4.30;;;2.20;;
17686;SDS011;8962;52.538;13.266;2023-09-19T03:30:32;4.45;;;2.05;;
17686;SDS011;8962;52.538;13.266;2023-09-19T03:33:02;4.45;;;2.03;;
17686;SDS011;8962;52.538;13.266;2023-09-19T03:35:32;4.50;;;2.05;;
17686;SDS011;8962;52.538;13.266;2023-09-19T03:38:00;3.45;;;1.98;;
17686;SDS011;8962;52.538;13.266;2023-09-19T03:40:30;4.95;;;1.80;;
17686;SDS011;8962;52.538;13.266;2023-09-19T03:43:00;3.85;;;1.90;;
17686;SDS011;8962;52.538;13.266;2023-09-19T03:45:29;2.83;;;1.60;;
17686;SDS011;8962;52.538;13.266;2023-09-19T03:47:56;2.42;;;1.80;;
17686;SDS011;8962;52.538;13.266;2023-09-19T03:50:24;3.30;;;1.80;;
17686;SDS011;8962;52.538;13.266;2023-09-19T03:52:55;5.38;;;1.70;;
17686;SDS011;8962;52.538;13.266;2023-09-19T03:55:23;4.32;;;1.60;;
17686;SDS011;8962;52.538;13.266;2023-09-19T03:57:50;3.83;;;1.67;;
17686;SDS011;8962;52.538;13.266;2023-09-19T04:00:18;2.50;;;1.80;;
17686;SDS011;8962;52.538;13.266;2023-09-19T04:02:48;3.80;;;1.90;;
17686;SDS011;8962;52.538;13.266;2023-09-19T04:05:15;2.47;;;1.92;;
17686;SDS011;8962;52.538;13.266;2023-09-19T04:07:44;4.13;;;1.77;;
17686;SDS011;8962;52.538;13.266;2023-09-19T04:10:12;2.97;;;1.70;;
17686;SDS011;8962;52.538;13.266;2023-09-19T04:12:39;2.25;;;1.92;;
17686;SDS011;8962;52.538;13.266;2023-09-19T04:15:08;5.10;;;1.95;;
17686;SDS011;8962;52.538;13.266;2023-09-19T04:17:38;3.15;;;2.00;;
17686;SDS011;8962;52.538;13.266;2023-09-19T04:20:08;3.80;;;1.90;;
17686;SDS011;8962;52.538;13.266;2023-09-19T04:22:37;4.35;;;1.90;;
17686;SDS011;8962;52.538;13.266;2023-09-19T04:25:05;6.65;;;2.30;;
17686;SDS011;8962;52.538;13.266;2023-09-19T04:27:33;2.75;;;2.10;;
17686;SDS011;8962;52.538;13.266;2023-09-19T04:30:00;3.28;;;2.08;;
17686;SDS011;8962;52.538;13.266;2023-09-19T04:32:35;2.42;;;2.20;;
17686;SDS011;8962;52.538;13.266;2023-09-19T04:35:08;4.95;;;1.90;;
17686;SDS011;8962;52.538;13.266;2023-09-19T04:37:37;5.57;;;2.90;;
17686;SDS011;8962;52.538;13.266;2023-09-19T04:40:07;3.05;;;2.10;;
17686;SDS011;8962;52.538;13.266;2023-09-19T04:42:42;3.03;;;2.13;;
17686;SDS011;8962;52.538;13.266;2023-09-19T04:45:11;3.88;;;2.10;;
17686;SDS011;8962;52.538;13.266;2023-09-19T04:47:39;5.15;;;2.15;;
17686;SDS011;8962;52.538;13.266;2023-09-19T04:50:10;4.90;;;2.00;;
17686;SDS011;8962;52.538;13.266;2023-09-19T04:52:39;3.65;;;2.10;;
17686;SDS011;8962;52.538;13.266;2023-09-19T04:55:09;5.63;;;2.17;;
17686;SDS011;8962;52.538;13.266;2023-09-19T04:57:42;2.60;;;2.00;;
17686;SDS011;8962;52.538;13.266;2023-09-19T05:00:11;2.63;;;1.70;;
17686;SDS011;8962;52.538;13.266;2023-09-19T05:02:40;2.35;;;1.80;;
17686;SDS011;8962;52.538;13.266;2023-09-19T05:05:09;4.65;;;2.08;;
17686;SDS011;8962;52.538;13.266;2023-09-19T05:07:37;3.78;;;2.17;;
17686;SDS011;8962;52.538;13.266;2023-09-19T05:10:06;3.00;;;1.92;;
17686;SDS011;8962;52.538;13.266;2023-09-19T05:12:34;2.47;;;1.70;;
17686;SDS011;8962;52.538;13.266;2023-09-19T05:15:01;5.03;;;2.20;;
17686;SDS011;8962;52.538;13.266;2023-09-19T05:17:29;3.85;;;1.92;;
17686;SDS011;8962;52.538;13.266;2023-09-19T05:19:56;3.22;;;1.98;;
17686;SDS011;8962;52.538;13.266;2023-09-19T05:22:28;5.15;;;2.15;;
17686;SDS011;8962;52.538;13.266;2023-09-19T05:24:55;3.88;;;1.90;;
17686;SDS011;8962;52.538;13.266;2023-09-19T05:27:22;3.42;;;1.85;;
17686;SDS011;8962;52.538;13.266;2023-09-19T05:29:49;4.55;;;2.08;;
17686;SDS011;8962;52.538;13.266;2023-09-19T05:32:18;3.13;;;2.08;;
17686;SDS011;8962;52.538;13.266;2023-09-19T05:34:46;2.63;;;1.90;;
17686;SDS011;8962;52.538;13.266;2023-09-19T05:37:18;4.15;;;2.30;;
17686;SDS011;8962;52.538;13.266;2023-09-19T05:39:46;6.93;;;2.28;;
17686;SDS011;8962;52.538;13.266;2023-09-19T05:42:13;3.67;;;2.03;;
17686;SDS011;8962;52.538;13.266;2023-09-19T05:44:41;4.60;;;2.20;;
17686;SDS011;8962;52.538;13.266;2023-09-19T05:47:08;6.03;;;2.28;;
17686;SDS011;8962;52.538;13.266;2023-09-19T05:49:35;7.00;;;2.40;;
17686;SDS011;8962;52.538;13.266;2023-09-19T05:52:04;3.65;;;2.08;;
17686;SDS011;8962;52.538;13.266;2023-09-19T05:54:32;4.35;;;2.00;;
17686;SDS011;8962;52.538;13.266;2023-09-19T05:57:00;4.53;;;1.83;;
17686;SDS011;8962;52.538;13.266;2023-09-19T05:59:28;4.03;;;2.10;;
17686;SDS011;8962;52.538;13.266;2023-09-19T06:01:56;5.28;;;2.28;;
17686;SDS011;8962;52.538;13.266;2023-09-19T06:04:24;4.13;;;2.28;;
17686;SDS011;8962;52.538;13.266;2023-09-19T06:06:51;3.95;;;1.75;;
17686;SDS011;8962;52.538;13.266;2023-09-19T06:09:18;2.58;;;1.80;;
17686;SDS011;8962;52.538;13.266;2023-09-19T06:11:46;3.50;;;2.20;;
17686;SDS011;8962;52.538;13.266;2023-09-19T06:14:14;3.78;;;2.08;;
17686;SDS011;8962;52.538;13.266;2023-09-19T06:16:43;5.85;;;2.38;;
17686;SDS011;8962;52.538;13.266;2023-09-19T06:19:10;4.05;;;2.28;;
17686;SDS011;8962;52.538;13.266;2023-09-19T06:21:38;5.25;;;2.35;;
17686;SDS011;8962;52.538;13.266;2023-09-19T06:24:06;7.40;;;2.30;;
17686;SDS011;8962;52.538;13.266;2023-09-19T06:26:36;7.00;;;2.28;;
17686;SDS011;8962;52.538;13.266;2023-09-19T06:29:04;6.10;;;2.30;;
17686;SDS011;8962;52.538;13.266;2023-09-19T06:31:34;7.85;;;2.20;;
17686;SDS011;8962;52.538;13.266;2023-09-19T06:34:01;3.42;;;1.98;;
17686;SDS011;8962;52.538;13.266;2023-09-19T06:36:28;5.57;;;2.35;;
17686;SDS011;8962;52.538;13.266;2023-09-19T06:38:55;5.07;;;2.58;;
17686;SDS011;8962;52.538;13.266;2023-09-19T06:41:22;4.75;;;2.20;;
17686;SDS011;8962;52.538;13.266;2023-09-19T06:43:50;4.70;;;2.38;;
17686;SDS011;8962;52.538;13.266;2023-09-19T06:46:18;3.80;;;2.10;;
17686;SDS011;8962;52.538;13.266;2023-09-19T06:48:47;7.45;;;2.42;;
17686;SDS011;8962;52.538;13.266;2023-09-19T06:51:14;5.15;;;2.40;;
17686;SDS011;8962;52.538;13.266;2023-09-19T06:53:43;4.35;;;2.28;;
17686;SDS011;8962;52.538;13.266;2023-09-19T06:56:12;4.30;;;2.10;;
17686;SDS011;8962;52.538;13.266;2023-09-19T06:58:40;3.88;;;2.10;;
17686;SDS011;8962;52.538;13.266;2023-09-19T07:01:10;5.57;;;2.17;;
17686;SDS011;8962;52.538;13.266;2023-09-19T07:03:38;5.05;;;2.30;;
17686;SDS011;8962;52.538;13.266;2023-09-19T07:06:07;5.18;;;2.40;;
17686;SDS011;8962;52.538;13.266;2023-09-19T07:08:34;4.82;;;2.03;;
17686;SDS011;8962;52.538;13.266;2023-09-19T07:11:03;3.90;;;2.10;;
17686;SDS011;8962;52.538;13.266;2023-09-19T07:13:31;6.53;;;2.50;;
17686;SDS011;8962;52.538;13.266;2023-09-19T07:15:58;7.25;;;2.20;;
17686;SDS011;8962;52.538;13.266;2023-09-19T07:18:28;6.25;;;2.45;;
17686;SDS011;8962;52.538;13.266;2023-09-19T07:20:57;4.25;;;2.42;;
17686;SDS011;8962;52.538;13.266;2023-09-19T07:23:33;6.57;;;2.00;;
17686;SDS011;8962;52.538;13.266;2023-09-19T07:26:00;7.03;;;2.20;;
17686;SDS011;8962;52.538;13.266;2023-09-19T07:28:30;6.60;;;2.35;;
17686;SDS011;8962;52.538;13.266;2023-09-19T07:31:01;3.42;;;2.00;;
17686;SDS011;8962;52.538;13.266;2023-09-19T07:33:31;3.47;;;2.30;;
17686;SDS011;8962;52.538;13.266;2023-09-19T07:35:59;5.18;;;2.60;;
17686;SDS011;8962;52.538;13.266;2023-09-19T07:38:26;5.70;;;2.83;;
17686;SDS011;8962;52.538;13.266;2023-09-19T07:40:59;6.43;;;2.28;;
17686;SDS011;8962;52.538;13.266;2023-09-19T07:43:27;7.47;;;2.58;;
17686;SDS011;8962;52.538;13.266;2023-09-19T07:45:54;7.88;;;2.63;;
17686;SDS011;8962;52.538;13.266;2023-09-19T07:48:21;4.90;;;2.72;;
17686;SDS011;8962;52.538;13.266;2023-09-19T07:50:50;5.97;;;2.70;;
17686;SDS011;8962;52.538;13.266;2023-09-19T07:53:17;5.07;;;2.80;;
17686;SDS011;8962;52.538;13.266;2023-09-19T07:55:44;6.32;;;2.80;;
17686;SDS011;8962;52.538;13.266;2023-09-19T07:58:14;6.57;;;2.55;;
17686;SDS011;8962;52.538;13.266;2023-09-19T08:00:42;7.03;;;2.90;;
17686;SDS011;8962;52.538;13.266;2023-09-19T08:03:11;7.95;;;2.88;;
17686;SDS011;8962;52.538;13.266;2023-09-19T08:05:40;7.22;;;3.05;;
17686;SDS011;8962;52.538;13.266;2023-09-19T08:08:08;5.28;;;2.85;;
17686;SDS011;8962;52.538;13.266;2023-09-19T08:10:40;5.80;;;2.85;;
17686;SDS011;8962;52.538;13.266;2023-09-19T08:13:09;5.45;;;2.63;;
17686;SDS011;8962;52.538;13.266;2023-09-19T08:15:43;5.38;;;2.70;;
17686;SDS011;8962;52.538;13.266;2023-09-19T08:18:11;6.07;;;2.65;;
17686;SDS011;8962;52.538;13.266;2023-09-19T08:20:38;7.20;;;2.78;;
17686;SDS011;8962;52.538;13.266;2023-09-19T08:23:07;8.02;;;2.95;;
17686;SDS011;8962;52.538;13.266;2023-09-19T08:25:34;5.90;;;2.90;;
17686;SDS011;8962;52.538;13.266;2023-09-19T08:28:04;4.55;;;2.45;;
17686;SDS011;8962;52.538;13.266;2023-09-19T08:30:37;5.15;;;2.80;;
17686;SDS011;8962;52.538;13.266;2023-09-19T08:33:07;5.88;;;3.15;;
17686;SDS011;8962;52.538;13.266;2023-09-19T08:35:34;7.22;;;2.95;;
17686;SDS011;8962;52.538;13.266;2023-09-19T08:38:03;7.22;;;3.20;;
17686;SDS011;8962;52.538;13.266;2023-09-19T08:40:31;7.38;;;3.53;;
17686;SDS011;8962;52.538;13.266;2023-09-19T08:42:59;4.80;;;2.80;;
17686;SDS011;8962;52.538;13.266;2023-09-19T08:45:27;5.25;;;2.85;;
17686;SDS011;8962;52.538;13.266;2023-09-19T08:47:56;8.93;;;3.28;;
17686;SDS011;8962;52.538;13.266;2023-09-19T08:50:33;7.70;;;3.30;;
17686;SDS011;8962;52.538;13.266;2023-09-19T08:53:09;7.75;;;2.78;;
17686;SDS011;8962;52.538;13.266;2023-09-19T08:55:41;7.35;;;3.15;;
17686;SDS011;8962;52.538;13.266;2023-09-19T08:58:13;7.00;;;2.85;;
17686;SDS011;8962;52.538;13.266;2023-09-19T09:00:44;7.95;;;2.95;;
17686;SDS011;8962;52.538;13.266;2023-09-19T09:03:14;5.32;;;2.72;;
17686;SDS011;8962;52.538;13.266;2023-09-19T09:05:47;10.65;;;3.47;;
17686;SDS011;8962;52.538;13.266;2023-09-19T09:08:16;7.00;;;2.65;;
17686;SDS011;8962;52.538;13.266;2023-09-19T09:10:47;3.55;;;2.42;;
17686;SDS011;8962;52.538;13.266;2023-09-19T09:13:14;4.22;;;2.42;;
17686;SDS011;8962;52.538;13.266;2023-09-19T09:15:43;5.45;;;2.58;;
17686;SDS011;8962;52.538;13.266;2023-09-19T09:18:10;4.55;;;2.53;;
17686;SDS011;8962;52.538;13.266;2023-09-19T09:20:38;6.72;;;2.80;;
17686;SDS011;8962;52.538;13.266;2023-09-19T09:23:07;4.25;;;2.47;;
17686;SDS011;8962;52.538;13.266;2023-09-19T09:25:47;4.07;;;2.67;;
17686;SDS011;8962;52.538;13.266;2023-09-19T09:28:21;5.53;;;2.75;;
17686;SDS011;8962;52.538;13.266;2023-09-19T09:30:49;9.32;;;3.20;;
17686;SDS011;8962;52.538;13.266;2023-09-19T09:33:17;8.07;;;3.20;;
17686;SDS011;8962;52.538;13.266;2023-09-19T09:35:51;7.97;;;3.20;;
17686;SDS011;8962;52.538;13.266;2023-09-19T09:38:23;6.88;;;2.75;;
17686;SDS011;8962;52.538;13.266;2023-09-19T09:40:54;5.65;;;3.03;;
17686;SDS011;8962;52.538;13.266;2023-09-19T09:43:27;6.97;;;2.83;;
17686;SDS011;8962;52.538;13.266;2023-09-19T09:46:06;7.22;;;2.63;;
17686;SDS011;8962;52.538;13.266;2023-09-19T09:49:00;11.13;;;3.10;;
17686;SDS011;8962;52.538;13.266;2023-09-19T09:51:41;7.03;;;2.88;;
17686;SDS011;8962;52.538;13.266;2023-09-19T09:54:14;10.20;;;3.33;;
17686;SDS011;8962;52.538;13.266;2023-09-19T09:56:52;7.35;;;2.88;;
17686;SDS011;8962;52.538;13.266;2023-09-19T10:02:19;7.13;;;2.92;;
17686;SDS011;8962;52.538;13.266;2023-09-19T10:04:54;8.95;;;3.08;;
17686;SDS011;8962;52.538;13.266;2023-09-19T10:07:41;8.75;;;3.13;;
17686;SDS011;8962;52.538;13.266;2023-09-19T10:10:16;8.07;;;3.28;;
17686;SDS011;8962;52.538;13.266;2023-09-19T10:13:04;9.10;;;3.22;;
17686;SDS011;8962;52.538;13.266;2023-09-19T10:15:38;9.20;;;3.10;;
17686;SDS011;8962;52.538;13.266;2023-09-19T10:18:11;10.00;;;2.80;;
17686;SDS011;8962;52.538;13.266;2023-09-19T10:20:43;9.40;;;2.72;;
17686;SDS011;8962;52.538;13.266;2023-09-19T10:23:14;7.07;;;2.83;;
17686;SDS011;8962;52.538;13.266;2023-09-19T10:25:49;6.90;;;2.63;;
17686;SDS011;8962;52.538;13.266;2023-09-19T10:28:18;6.82;;;2.47;;
17686;SDS011;8962;52.538;13.266;2023-09-19T10:30:47;9.55;;;3.03;;
17686;SDS011;8962;52.538;13.266;2023-09-19T10:33:15;6.47;;;2.80;;
17686;SDS011;8962;52.538;13.266;2023-09-19T10:35:46;7.57;;;3.03;;
17686;SDS011;8962;52.538;13.266;2023-09-19T10:38:17;8.45;;;2.63;;
17686;SDS011;8962;52.538;13.266;2023-09-19T10:40:49;6.32;;;2.15;;
17686;SDS011;8962;52.538;13.266;2023-09-19T10:43:17;10.60;;;3.25;;
17686;SDS011;8962;52.538;13.266;2023-09-19T10:45:47;6.68;;;2.58;;
17686;SDS011;8962;52.538;13.266;2023-09-19T10:48:17;6.97;;;2.45;;
17686;SDS011;8962;52.538;13.266;2023-09-19T10:50:46;8.38;;;3.15;;
17686;SDS011;8962;52.538;13.266;2023-09-19T10:53:20;7.75;;;2.67;;
17686;SDS011;8962;52.538;13.266;2023-09-19T10:55:51;6.07;;;3.13;;
17686;SDS011;8962;52.538;13.266;2023-09-19T10:58:26;6.97;;;2.42;;
17686;SDS011;8962;52.538;13.266;2023-09-19T11:00:55;5.55;;;2.30;;
17686;SDS011;8962;52.538;13.266;2023-09-19T11:03:37;5.63;;;2.10;;
17686;SDS011;8962;52.538;13.266;2023-09-19T11:06:09;7.40;;;2.38;;
17686;SDS011;8962;52.538;13.266;2023-09-19T11:08:53;6.22;;;2.75;;
17686;SDS011;8962;52.538;13.266;2023-09-19T11:11:44;6.97;;;2.88;;
17686;SDS011;8962;52.538;13.266;2023-09-19T11:14:28;6.15;;;2.60;;
17686;SDS011;8962;52.538;13.266;2023-09-19T11:25:47;4.63;;;2.08;;
17686;SDS011;8962;52.538;13.266;2023-09-19T11:28:34;5.13;;;2.33;;
17686;SDS011;8962;52.538;13.266;2023-09-19T11:40:29;6.63;;;2.15;;
17686;SDS011;8962;52.538;13.266;2023-09-19T11:42:56;7.07;;;2.08;;
17686;SDS011;8962;52.538;13.266;2023-09-19T11:48:31;4.25;;;2.03;;
17686;SDS011;8962;52.538;13.266;2023-09-19T11:51:09;6.63;;;2.05;;
17686;SDS011;8962;52.538;13.266;2023-09-19T11:53:47;6.68;;;2.10;;
17686;SDS011;8962;52.538;13.266;2023-09-19T11:56:19;4.28;;;1.85;;
17686;SDS011;8962;52.538;13.266;2023-09-19T11:58:49;6.63;;;1.90;;
17686;SDS011;8962;52.538;13.266;2023-09-19T12:01:23;4.30;;;1.80;;
17686;SDS011;8962;52.538;13.266;2023-09-19T12:03:55;5.60;;;2.20;;
17686;SDS011;8962;52.538;13.266;2023-09-19T12:06:23;5.78;;;1.98;;
17686;SDS011;8962;52.538;13.266;2023-09-19T12:08:51;4.18;;;1.80;;
17686;SDS011;8962;52.538;13.266;2023-09-19T12:11:22;5.13;;;1.90;;
17686;SDS011;8962;52.538;13.266;2023-09-19T12:13:50;4.13;;;1.80;;
17686;SDS011;8962;52.538;13.266;2023-09-19T12:16:20;3.55;;;2.05;;
17686;SDS011;8962;52.538;13.266;2023-09-19T12:18:50;3.55;;;1.90;;
17686;SDS011;8962;52.538;13.266;2023-09-19T12:21:23;5.32;;;2.05;;
17686;SDS011;8962;52.538;13.266;2023-09-19T12:26:44;7.07;;;1.80;;
17686;SDS011;8962;52.538;13.266;2023-09-19T12:29:13;9.55;;;1.88;;
17686;SDS011;8962;52.538;13.266;2023-09-19T12:31:51;5.30;;;1.80;;
17686;SDS011;8962;52.538;13.266;2023-09-19T12:34:21;5.38;;;1.70;;
17686;SDS011;8962;52.538;13.266;2023-09-19T12:37:06;5.03;;;1.67;;
17686;SDS011;8962;52.538;13.266;2023-09-19T12:39:46;4.03;;;1.60;;
17686;SDS011;8962;52.538;13.266;2023-09-19T12:42:16;5.18;;;1.58;;
17686;SDS011;8962;52.538;13.266;2023-09-19T12:44:46;3.17;;;1.60;;
17686;SDS011;8962;52.538;13.266;2023-09-19T12:47:18;6.05;;;2.00;;
17686;SDS011;8962;52.538;13.266;2023-09-19T12:52:40;3.90;;;1.58;;
17686;SDS011;8962;52.538;13.266;2023-09-19T12:55:23;3.47;;;2.15;;
17686;SDS011;8962;52.538;13.266;2023-09-19T12:57:58;4.68;;;1.80;;
17686;SDS011;8962;52.538;13.266;2023-09-19T13:00:35;4.05;;;1.50;;
17686;SDS011;8962;52.538;13.266;2023-09-19T13:03:15;7.75;;;2.20;;
17686;SDS011;8962;52.538;13.266;2023-09-19T13:05:51;4.63;;;1.67;;
17686;SDS011;8962;52.538;13.266;2023-09-19T13:08:24;5.55;;;1.80;;
17686;SDS011;8962;52.538;13.266;2023-09-19T13:11:04;5.57;;;1.73;;
17686;SDS011;8962;52.538;13.266;2023-09-19T13:13:36;3.78;;;1.80;;
17686;SDS011;8962;52.538;13.266;2023-09-19T13:16:05;4.03;;;1.95;;
17686;SDS011;8962;52.538;13.266;2023-09-19T13:18:49;5.15;;;1.50;;
17686;SDS011;8962;52.538;13.266;2023-09-19T13:21:27;4.38;;;1.80;;
17686;SDS011;8962;52.538;13.266;2023-09-19T13:26:46;6.05;;;1.73;;
17686;SDS011;8962;52.538;13.266;2023-09-19T13:29:13;6.97;;;2.35;;
17686;SDS011;8962;52.538;13.266;2023-09-19T13:31:45;5.25;;;1.85;;
17686;SDS011;8962;52.538;13.266;2023-09-19T13:34:15;3.20;;;1.63;;
17686;SDS011;8962;52.538;13.266;2023-09-19T13:36:43;9.52;;;1.98;;
17686;SDS011;8962;52.538;13.266;2023-09-19T13:39:13;5.80;;;1.80;;
17686;SDS011;8962;52.538;13.266;2023-09-19T13:41:41;5.07;;;1.98;;
17686;SDS011;8962;52.538;13.266;2023-09-19T13:44:08;5.78;;;2.28;;
17686;SDS011;8962;52.538;13.266;2023-09-19T13:46:37;6.57;;;2.17;;
17686;SDS011;8962;52.538;13.266;2023-09-19T13:49:08;7.32;;;2.05;;
17686;SDS011;8962;52.538;13.266;2023-09-19T13:51:38;5.63;;;2.17;;
17686;SDS011;8962;52.538;13.266;2023-09-19T13:54:08;6.82;;;1.83;;
17686;SDS011;8962;52.538;13.266;2023-09-19T13:56:37;5.78;;;2.00;;
17686;SDS011;8962;52.538;13.266;2023-09-19T13:59:04;5.03;;;2.40;;
17686;SDS011;8962;52.538;13.266;2023-09-19T14:01:31;5.68;;;2.10;;
17686;SDS011;8962;52.538;13.266;2023-09-19T14:03:58;3.67;;;1.90;;
17686;SDS011;8962;52.538;13.266;2023-09-19T14:06:26;6.65;;;1.80;;
17686;SDS011;8962;52.538;13.266;2023-09-19T14:08:54;5.38;;;1.85;;
17686;SDS011;8962;52.538;13.266;2023-09-19T14:11:23;4.28;;;1.70;;
17686;SDS011;8962;52.538;13.266;2023-09-19T14:13:50;4.10;;;1.83;;
17686;SDS011;8962;52.538;13.266;2023-09-19T14:16:17;4.65;;;2.05;;
17686;SDS011;8962;52.538;13.266;2023-09-19T14:18:47;6.32;;;1.80;;
17686;SDS011;8962;52.538;13.266;2023-09-19T14:21:16;3.92;;;1.63;;
17686;SDS011;8962;52.538;13.266;2023-09-19T14:23:44;6.45;;;2.28;;
17686;SDS011;8962;52.538;13.266;2023-09-19T14:26:13;3.28;;;1.70;;
17686;SDS011;8962;52.538;13.266;2023-09-19T14:28:44;6.32;;;2.90;;
17686;SDS011;8962;52.538;13.266;2023-09-19T14:31:12;5.40;;;2.05;;
17686;SDS011;8962;52.538;13.266;2023-09-19T14:33:41;4.20;;;2.17;;
17686;SDS011;8962;52.538;13.266;2023-09-19T14:36:09;5.70;;;2.00;;
17686;SDS011;8962;52.538;13.266;2023-09-19T14:38:38;7.80;;;2.13;;
17686;SDS011;8962;52.538;13.266;2023-09-19T14:41:06;5.20;;;2.20;;
17686;SDS011;8962;52.538;13.266;2023-09-19T14:43:35;4.15;;;1.70;;
17686;SDS011;8962;52.538;13.266;2023-09-19T14:46:02;3.58;;;1.98;;
17686;SDS011;8962;52.538;13.266;2023-09-19T14:48:30;4.10;;;1.83;;
17686;SDS011;8962;52.538;13.266;2023-09-19T14:51:01;4.72;;;2.38;;
17686;SDS011;8962;52.538;13.266;2023-09-19T14:53:29;6.32;;;2.10;;
17686;SDS011;8962;52.538;13.266;2023-09-19T14:55:56;5.45;;;1.88;;
17686;SDS011;8962;52.538;13.266;2023-09-19T14:58:27;4.25;;;1.70;;
17686;SDS011;8962;52.538;13.266;2023-09-19T15:01:02;7.05;;;2.28;;
17686;SDS011;8962;52.538;13.266;2023-09-19T15:03:30;3.80;;;1.90;;
17686;SDS011;8962;52.538;13.266;2023-09-19T15:06:01;5.53;;;2.08;;
17686;SDS011;8962;52.538;13.266;2023-09-19T15:08:30;4.28;;;1.75;;
17686;SDS011;8962;52.538;13.266;2023-09-19T15:10:59;6.05;;;2.00;;
17686;SDS011;8962;52.538;13.266;2023-09-19T15:13:29;2.65;;;1.70;;
17686;SDS011;8962;52.538;13.266;2023-09-19T15:16:00;4.35;;;1.90;;
17686;SDS011;8962;52.538;13.266;2023-09-19T15:18:30;4.95;;;2.00;;
17686;SDS011;8962;52.538;13.266;2023-09-19T15:21:00;4.85;;;1.70;;
17686;SDS011;8962;52.538;13.266;2023-09-19T15:23:27;3.83;;;1.88;;
17686;SDS011;8962;52.538;13.266;2023-09-19T15:25:55;4.90;;;2.50;;
17686;SDS011;8962;52.538;13.266;2023-09-19T15:28:22;4.25;;;1.98;;
17686;SDS011;8962;52.538;13.266;2023-09-19T15:30:50;6.07;;;2.25;;
17686;SDS011;8962;52.538;13.266;2023-09-19T15:33:21;2.53;;;1.60;;
17686;SDS011;8962;52.538;13.266;2023-09-19T15:35:50;3.75;;;1.92;;
17686;SDS011;8962;52.538;13.266;2023-09-19T15:38:17;6.20;;;2.47;;
17686;SDS011;8962;52.538;13.266;2023-09-19T15:40:47;4.47;;;1.90;;
17686;SDS011;8962;52.538;13.266;2023-09-19T15:43:14;5.28;;;2.13;;